首页
METAR-TAF:

METAR-TAF

机场 :

High Level, 艾伯塔, 加拿大

纬度: 58-37N, 经度: 117-10W, 海拔: 338米

当前天气观测

该预报发布于51分钟前的17:00 UTC
风速5节,风向西南,在西之间变化
温度 17°C
湿度 68%
气压 1004 hPa
能見度: 24.1公里
少量云层高于9000英尺
少量云层高于26000英尺

METAR: CYOJ 081700Z 22005KT 180V270 15SM FEW090 FEW260 17/11 A2964 RMK ACC1CI1 ACC TR SLP045 DENSITY ALT 2000FT

时间: 11:51 (17:51 UTC)

预报

该预报发布于5小时和13分钟前的12:38 UTC
预报有效从08日的 13点(UTC)到 09日的 01点(UTC)
风速3节,风向多变
能見度: 10公里
天空无云
短暂存在
从 08日的 13点(UTC)到 08日的 15点(UTC)
能見度: 3.2公里
轻雾
几率 40%
从 08日的 13点(UTC)到 08日的 15点(UTC)
能見度: 0.8公里
层高于200英尺
从 08日的 1800点(UTC)
风速8节,风向西
能見度: 10公里
散云层高于6000英尺

TAF: CYOJ 081238Z 0813/0901 VRB03KT P6SM SKC TEMPO 0813/0815 2SM BR PROB40 0813/0815 1/2SM FG VV002 FM081800 28008KT P6SM SCT060 RMK FCST BASED ON AUTO OBS. NXT FCST BY 081900Z

超过4000个机场的气象观测和天气预报(METAR&TAF报告)。

可查询的气象台以黄色和红色小点在地图上表示。

将鼠标移到小点上方,可查看气象台名称。

然后点击查看天气观测和预报。

如需切换地图:点击带黑十字的绿色按钮放大地图;点击带横线的绿色按钮缩小地图;或者点击绿色箭头查看邻近地区的地图。


METAR-TAF: